Time;durP1;ratioP1;P1;durP2;ratioP2;P2;SDS_P1;SDS_P2;PMS_P1;PMS_P2;Temp;Humidity;BMP_temperature;BMP_pressure;BME280_temperature;BME280_humidity;BME280_pressure;Samples;Min_cycle;Max_cycle;Signal;HPM_P1;HPM_P2
2022/05/04 00:00:46;;;;;;;;;;;;;;;17.51;47.96;100755.81;5001418;27;128529;-68
2022/05/04 00:03:12;;;;;;;;;;;;;;;17.50;47.93;100761.59;5000115;27;101591;-67
2022/05/04 00:05:38;;;;;;;;;;;;;;;17.47;47.92;100770.38;5002012;27;98862;-67
2022/05/04 00:08:05;;;;;;;;;;;;;;;17.45;47.95;100775.31;4985339;27;128631;-68
2022/05/04 00:10:31;;;;;;;;;;;;;;;17.42;48.25;100779.47;4980560;27;123590;-68
2022/05/04 00:13:00;;;;;;;;;;;;;;;17.40;47.99;100768.06;4980532;28;97976;-67
2022/05/04 00:15:26;;;;;;;;;;;;;;;17.39;48.17;100774.63;5000633;27;98358;-67
2022/05/04 00:17:52;;;;;;;;;;;;;;;17.37;48.24;100769.50;4980035;28;124673;-68
2022/05/04 00:20:18;;;;;;;;;;;;;;;17.36;48.46;100765.13;5009296;28;127159;-67
2022/05/04 00:22:44;;;;;;;;;;;;;;;17.34;48.34;100767.38;5031838;27;111309;-67
2022/05/04 00:25:10;;;;;;;;;;;;;;;17.33;48.25;100764.94;4989569;28;97892;-67
2022/05/04 00:27:37;;;;;;;;;;;;;;;17.32;48.18;100764.13;4990187;27;123219;-67
2022/05/04 00:30:06;;;;;;;;;;;;;;;17.29;48.31;100759.31;5001594;27;97913;-68
2022/05/04 00:32:32;;;;;;;;;;;;;;;17.28;48.42;100767.78;4999513;27;113072;-67
2022/05/04 00:34:58;;;;;;;;;;;;;;;17.26;48.36;100767.28;5001477;27;101837;-67
2022/05/04 00:37:24;;;;;;;;;;;;;;;17.24;48.52;100766.78;4994920;27;98403;-67
2022/05/04 00:39:50;;;;;;;;;;;;;;;17.22;48.46;100769.81;4980554;28;127487;-68
2022/05/04 00:42:17;;;;;;;;;;;;;;;17.21;48.40;100770.09;4981555;28;117511;-67
2022/05/04 00:44:46;;;;;;;;;;;;;;;17.19;48.39;100770.41;4982379;28;100524;-67
2022/05/04 00:47:12;;;;;;;;;;;;;;;17.17;48.60;100770.72;4983290;27;99419;-67
2022/05/04 00:49:38;;;;;;;;;;;;;;;17.15;48.61;100772.13;4961424;28;125172;-67
2022/05/04 00:52:05;;;;;;;;;;;;;;;17.13;48.34;100766.16;4963910;28;102216;-67
2022/05/04 00:54:34;;;;;;;;;;;;;;;17.11;48.57;100766.47;4980659;28;122978;-67
2022/05/04 00:57:01;;;;;;;;;;;;;;;17.10;48.66;100767.59;5002220;27;120669;-67
2022/05/04 00:59:28;;;;;;;;;;;;;;;17.07;48.53;100768.22;5000535;27;98108;-67
2022/05/04 01:01:54;;;;;;;;;;;;;;;17.06;48.68;100771.25;5002229;27;115163;-67
2022/05/04 01:04:20;;;;;;;;;;;;;;;17.04;48.56;100778.91;4995117;27;125761;-67
2022/05/04 01:06:46;;;;;;;;;;;;;;;17.01;48.76;100772.13;4981001;27;112077;-67
2022/05/04 01:09:12;;;;;;;;;;;;;;;17.00;48.82;100770.53;5000805;27;98447;-67
2022/05/04 01:11:38;;;;;;;;;;;;;;;16.98;48.86;100766.47;4993799;27;97711;-67
2022/05/04 01:14:05;;;;;;;;;;;;;;;16.95;48.52;100769.81;4981090;27;124423;-66
2022/05/04 01:16:32;;;;;;;;;;;;;;;16.93;48.95;100770.13;4980356;27;113563;-67
2022/05/04 01:18:58;;;;;;;;;;;;;;;16.90;48.73;100770.75;4998723;27;100382;-67
2022/05/04 01:21:24;;;;;;;;;;;;;;;16.88;48.74;100778.38;4985580;27;98118;-67
2022/05/04 01:23:49;;;;;;;;;;;;;;;16.84;48.88;100778.19;4980356;28;127215;-67
2022/05/04 01:26:18;;;;;;;;;;;;;;;16.84;49.13;100782.81;4979367;27;106831;-68
2022/05/04 01:28:44;;;;;;;;;;;;;;;16.80;48.79;100785.34;4996336;27;97964;-67
2022/05/04 01:31:10;;;;;;;;;;;;;;;16.78;48.92;100778.56;5001213;27;98130;-69
2022/05/04 01:33:36;;;;;;;;;;;;;;;16.74;49.13;100775.66;4998822;27;127784;-67
2022/05/04 01:36:03;;;;;;;;;;;;;;;16.73;48.74;100776.75;5001148;27;98967;-68
2022/05/04 01:38:28;;;;;;;;;;;;;;;16.71;48.79;100780.88;4986119;27;98515;-67
2022/05/04 01:40:54;;;;;;;;;;;;;;;16.67;49.15;100773.31;4980099;27;115768;-67
2022/05/04 01:43:20;;;;;;;;;;;;;;;16.65;49.12;100782.88;4980326;28;123221;-67
2022/05/04 01:45:48;;;;;;;;;;;;;;;16.63;48.88;100782.38;4980105;28;119025;-67
2022/05/04 01:48:14;;;;;;;;;;;;;;;16.60;48.97;100783.78;4981758;27;97665;-68
2022/05/04 01:50:40;;;;;;;;;;;;;;;16.57;49.02;100775.41;4961744;28;117532;-67
2022/05/04 01:53:06;;;;;;;;;;;;;;;16.55;49.17;100773.00;4978109;27;129290;-67
2022/05/04 01:55:33;;;;;;;;;;;;;;;16.52;49.14;100784.47;4982802;27;98262;-67
2022/05/04 01:57:59;;;;;;;;;;;;;;;16.50;49.25;100769.53;5009914;27;103941;-68
2022/05/04 02:00:25;;;;;;;;;;;;;;;16.47;49.38;100775.59;4979295;27;98186;-67
2022/05/04 02:02:51;;;;;;;;;;;;;;;16.45;49.18;100778.59;4982485;27;98367;-68
2022/05/04 02:05:16;;;;;;;;;;;;;;;16.42;49.09;100776.47;4997552;27;128463;-67
2022/05/04 02:07:42;;;;;;;;;;;;;;;16.39;49.26;100769.72;4993828;27;127201;-67
2022/05/04 02:10:09;;;;;;;;;;;;;;;16.37;48.99;100774.66;4977459;28;114528;-67
2022/05/04 02:12:35;;;;;;;;;;;;;;;16.36;48.95;100780.41;4973979;28;99243;-68
2022/05/04 02:15:02;;;;;;;;;;;;;;;16.32;49.32;100780.19;4979942;27;98463;-68
2022/05/04 02:17:28;;;;;;;;;;;;;;;16.31;49.10;100777.75;4982579;27;99146;-68
2022/05/04 02:19:54;;;;;;;;;;;;;;;16.29;49.11;100780.78;4995503;27;117665;-67
2022/05/04 02:22:20;;;;;;;;;;;;;;;16.26;49.21;100786.81;4979840;28;128271;-68
2022/05/04 02:24:46;;;;;;;;;;;;;;;16.25;49.09;100776.22;4979572;28;128967;-67
2022/05/04 02:27:12;;;;;;;;;;;;;;;16.22;49.26;100780.34;4981109;27;98080;-67
2022/05/04 02:29:38;;;;;;;;;;;;;;;16.21;49.40;100781.44;4999718;27;117511;-68
2022/05/04 02:32:04;;;;;;;;;;;;;;;16.17;49.51;100775.00;4999402;27;129053;-68
2022/05/04 02:34:30;;;;;;;;;;;;;;;16.17;49.13;100781.25;4999872;27;124531;-68
2022/05/04 02:39:40;;;;;;;;;;;;;;;16.14;49.22;100783.75;4980483;28;98097;-67
2022/05/04 02:42:06;;;;;;;;;;;;;;;16.11;49.16;100787.88;4979531;28;126195;-67
2022/05/04 02:44:32;;;;;;;;;;;;;;;16.11;49.17;100789.75;4978783;27;123426;-67
2022/05/04 02:46:58;;;;;;;;;;;;;;;16.09;49.33;100786.56;4980571;28;98189;-68
2022/05/04 02:49:24;;;;;;;;;;;;;;;16.08;49.29;100783.03;4980344;27;116413;-67
2022/05/04 02:51:51;;;;;;;;;;;;;;;16.07;49.46;100783.31;4979526;28;127460;-68
2022/05/04 02:54:17;;;;;;;;;;;;;;;16.05;49.49;100789.06;4981551;27;100795;-68
2022/05/04 02:56:43;;;;;;;;;;;;;;;16.06;49.28;100784.41;5001178;27;127923;-68
2022/05/04 02:59:09;;;;;;;;;;;;;;;16.04;49.14;100786.63;5003328;27;118670;-67
2022/05/04 03:04:19;;;;;;;;;;;;;;;16.02;49.55;100784.19;4999382;27;98140;-68
2022/05/04 03:06:45;;;;;;;;;;;;;;;16.01;49.53;100784.50;4998544;27;128293;-67
2022/05/04 03:09:11;;;;;;;;;;;;;;;16.01;49.60;100782.59;4985857;27;97667;-69
2022/05/04 03:11:56;;;;;;;;;;;;;;;16.00;49.49;100783.69;4982761;27;99167;-67
2022/05/04 03:14:23;;;;;;;;;;;;;;;16.00;49.61;100783.69;4978426;28;100507;-67
2022/05/04 03:16:52;;;;;;;;;;;;;;;15.98;49.59;100783.19;4980489;27;97859;-67
2022/05/04 03:19:18;;;;;;;;;;;;;;;15.99;49.62;100778.53;4995396;27;97714;-68
2022/05/04 03:21:44;;;;;;;;;;;;;;;15.97;49.45;100778.03;4984801;27;99137;-68
2022/05/04 03:24:10;;;;;;;;;;;;;;;15.97;49.67;100781.56;4998556;27;128589;-68
2022/05/04 03:26:36;;;;;;;;;;;;;;;15.96;49.52;100785.41;4998946;27;113192;-68
2022/05/04 03:29:03;;;;;;;;;;;;;;;15.94;49.59;100782.97;4987847;27;116371;-69
2022/05/04 03:31:29;;;;;;;;;;;;;;;15.95;49.65;100794.63;4981794;28;128517;-67
2022/05/04 03:33:55;;;;;;;;;;;;;;;15.94;49.74;100791.09;4982081;27;98485;-67
2022/05/04 03:36:21;;;;;;;;;;;;;;;15.92;49.62;100795.25;4983002;27;98749;-67
2022/05/04 03:38:47;;;;;;;;;;;;;;;15.92;49.76;100797.97;4992338;27;112369;-67
2022/05/04 03:41:13;;;;;;;;;;;;;;;15.91;49.86;100793.59;5001599;27;128414;-67
2022/05/04 03:43:39;;;;;;;;;;;;;;;15.90;49.61;100792.00;5000832;27;100872;-68
2022/05/04 03:46:22;;;;;;;;;;;;;;;15.89;49.62;100798.53;4999953;27;122402;-67
2022/05/04 03:48:49;;;;;;;;;;;;;;;15.88;49.55;100795.03;4999209;27;98052;-67
2022/05/04 03:51:18;;;;;;;;;;;;;;;15.87;49.93;100796.09;4990490;27;98414;-67
2022/05/04 03:53:48;;;;;;;;;;;;;;;15.88;49.72;100803.19;4982675;27;98323;-67
2022/05/04 03:56:14;;;;;;;;;;;;;;;15.87;49.49;100809.69;4988709;27;98310;-67
2022/05/04 03:58:40;;;;;;;;;;;;;;;15.88;49.86;100807.81;4990974;27;106279;-67
2022/05/04 04:01:06;;;;;;;;;;;;;;;15.87;49.95;100806.97;5002316;27;98887;-67
2022/05/04 04:03:32;;;;;;;;;;;;;;;15.90;49.43;100808.31;5002060;27;128360;-67
2022/05/04 04:05:58;;;;;;;;;;;;;;;15.91;49.57;100809.91;5002808;27;97994;-67
2022/05/04 04:08:24;;;;;;;;;;;;;;;15.94;49.90;100823.72;5001059;27;98130;-67
2022/05/04 04:10:50;;;;;;;;;;;;;;;15.95;49.94;100816.38;4991791;27;102686;-67
2022/05/04 04:13:16;;;;;;;;;;;;;;;15.95;49.87;100821.81;4982868;28;98430;-67
2022/05/04 04:15:42;;;;;;;;;;;;;;;15.95;49.48;100814.50;4981222;28;126476;-68
2022/05/04 04:18:09;;;;;;;;;;;;;;;15.97;49.60;100816.09;4982836;27;99658;-67
2022/05/04 04:23:20;;;;;;;;;;;;;;;15.98;49.91;100818.50;5000203;27;98041;-68
2022/05/04 04:25:46;;;;;;;;;;;;;;;16.00;49.90;100819.03;5002420;27;98018;-67
2022/05/04 04:28:11;;;;;;;;;;;;;;;16.02;49.69;100819.53;5001676;27;117310;-68
2022/05/04 04:30:38;;;;;;;;;;;;;;;16.06;49.66;100819.75;5001216;27;126058;-68
2022/05/04 04:33:05;;;;;;;;;;;;;;;16.10;49.98;100827.03;5000735;27;98857;-68
2022/05/04 04:35:31;;;;;;;;;;;;;;;16.10;49.77;100821.59;5001563;27;98187;-67
2022/05/04 04:37:58;;;;;;;;;;;;;;;16.14;49.55;100827.25;5000231;27;97959;-67
2022/05/04 04:40:24;;;;;;;;;;;;;;;16.18;49.73;100828.28;5001251;27;99085;-67
2022/05/04 04:42:50;;;;;;;;;;;;;;;16.22;49.98;100829.28;4999004;27;126489;-67
2022/05/04 04:45:18;;;;;;;;;;;;;;;16.25;49.59;100819.75;4997298;27;126941;-68
2022/05/04 04:47:45;;;;;;;;;;;;;;;16.30;49.72;100825.09;4977448;27;118523;-68
2022/05/04 04:50:11;;;;;;;;;;;;;;;16.34;49.78;100817.94;4978272;27;98583;-68
2022/05/04 04:52:37;;;;;;;;;;;;;;;16.39;49.87;100824.13;4977433;27;99445;-67
2022/05/04 04:55:04;;;;;;;;;;;;;;;16.47;49.80;100825.38;4979868;27;111456;-67
2022/05/04 04:57:30;;;;;;;;;;;;;;;16.54;49.53;100817.59;5017201;27;98130;-67
2022/05/04 04:59:56;;;;;;;;;;;;;;;16.64;49.45;100820.16;5014719;27;98396;-67
2022/05/04 05:02:22;;;;;;;;;;;;;;;16.78;49.14;100831.13;5001081;27;128403;-67
2022/05/04 05:04:48;;;;;;;;;;;;;;;16.89;49.48;100821.63;4983888;27;125319;-67
2022/05/04 05:07:14;;;;;;;;;;;;;;;16.96;49.46;100825.88;4981333;27;118149;-67
2022/05/04 05:09:40;;;;;;;;;;;;;;;16.98;49.42;100820.94;4981344;27;127677;-67
2022/05/04 05:12:06;;;;;;;;;;;;;;;17.01;49.62;100825.78;4980941;27;126152;-67
2022/05/04 05:17:17;;;;;;;;;;;;;;;17.14;49.61;100820.34;4979721;28;97873;-67
2022/05/04 05:19:43;;;;;;;;;;;;;;;17.22;49.61;100815.31;4983493;27;99825;-68
2022/05/04 05:22:09;;;;;;;;;;;;;;;17.25;49.61;100829.13;5000454;27;125906;-68
2022/05/04 05:24:35;;;;;;;;;;;;;;;17.32;49.52;100832.25;4995629;27;127743;-68
2022/05/04 05:27:01;;;;;;;;;;;;;;;17.37;49.46;100831.31;4981262;27;118704;-67
2022/05/04 05:29:27;;;;;;;;;;;;;;;17.41;49.46;100832.34;4978167;28;127144;-68
2022/05/04 05:31:53;;;;;;;;;;;;;;;17.46;49.46;100829.53;4981062;28;127101;-67
2022/05/04 05:34:19;;;;;;;;;;;;;;;17.58;49.43;100829.81;4980291;28;127491;-67
2022/05/04 05:36:45;;;;;;;;;;;;;;;17.66;49.27;100839.19;4981519;27;117344;-67
2022/05/04 05:39:11;;;;;;;;;;;;;;;17.70;49.43;100837.47;4987406;27;98304;-67
2022/05/04 05:41:37;;;;;;;;;;;;;;;17.95;49.20;100838.81;4967817;28;127910;-68
2022/05/04 05:44:04;;;;;;;;;;;;;;;18.21;48.82;100840.97;4979723;27;99536;-68
2022/05/04 05:46:30;;;;;;;;;;;;;;;18.40;48.64;100844.31;4999973;27;98433;-67
2022/05/04 05:48:56;;;;;;;;;;;;;;;18.52;48.60;100846.50;5000028;27;98895;-67
2022/05/04 05:51:22;;;;;;;;;;;;;;;18.75;48.30;100844.56;4999780;27;118409;-67
2022/05/04 05:53:48;;;;;;;;;;;;;;;18.98;47.97;100839.84;4985583;27;127879;-67
2022/05/04 05:56:14;;;;;;;;;;;;;;;19.12;47.86;100848.75;4994392;27;117597;-67
2022/05/04 05:58:40;;;;;;;;;;;;;;;19.21;47.76;100854.25;5015905;27;125787;-67
2022/05/04 06:01:06;;;;;;;;;;;;;;;19.35;47.43;100850.28;5000327;27;98802;-67
2022/05/04 06:03:32;;;;;;;;;;;;;;;19.43;47.55;100850.63;5000276;27;98214;-67
2022/05/04 06:05:58;;;;;;;;;;;;;;;19.52;47.11;100841.31;5000809;27;112694;-68
2022/05/04 06:08:23;;;;;;;;;;;;;;;19.62;47.00;100843.00;4998745;27;128781;-67
2022/05/04 06:10:49;;;;;;;;;;;;;;;19.80;47.00;100843.81;4998329;27;127323;-67
2022/05/04 06:13:15;;;;;;;;;;;;;;;19.93;46.79;100842.88;4979072;28;126484;-68
2022/05/04 06:15:41;;;;;;;;;;;;;;;20.21;46.41;100835.13;4980478;28;97874;-67
2022/05/04 06:18:07;;;;;;;;;;;;;;;20.29;46.39;100839.00;4979498;28;128114;-67
2022/05/04 06:20:33;;;;;;;;;;;;;;;20.79;45.95;100835.72;4987774;27;99724;-67
2022/05/04 06:22:59;;;;;;;;;;;;;;;21.24;45.50;100832.47;4980826;28;98058;-67
2022/05/04 06:25:25;;;;;;;;;;;;;;;21.73;44.92;100832.81;4979301;27;116726;-67
2022/05/04 06:27:51;;;;;;;;;;;;;;;22.22;44.54;100838.63;4979448;28;124968;-68
2022/05/04 06:35:46;;;;;;;;;;;;;;;23.47;43.92;100846.41;4992646;27;98037;-67
2022/05/04 06:38:12;;;;;;;;;;;;;;;24.00;43.25;100847.22;4977182;28;127926;-67
2022/05/04 06:40:38;;;;;;;;;;;;;;;24.52;43.15;100847.50;4997652;27;98985;-67
2022/05/04 06:43:04;;;;;;;;;;;;;;;24.92;42.64;100842.69;4997426;27;128271;-67
2022/05/04 06:45:30;;;;;;;;;;;;;;;25.34;42.95;100846.84;4998964;27;115369;-67
2022/05/04 06:47:56;;;;;;;;;;;;;;;25.77;42.34;100856.09;4997813;27;129093;-69
2022/05/04 06:50:22;;;;;;;;;;;;;;;26.19;42.38;100861.78;4985297;27;98334;-67
2022/05/04 06:52:48;;;;;;;;;;;;;;;26.65;41.95;100864.66;4992245;27;119869;-67
2022/05/04 06:55:14;;;;;;;;;;;;;;;27.05;41.58;100869.72;4998856;27;97895;-68
2022/05/04 06:57:40;;;;;;;;;;;;;;;27.44;41.57;100866.00;5017745;27;98773;-68
2022/05/04 07:00:07;;;;;;;;;;;;;;;27.76;41.43;100864.53;5005457;27;124095;-67
2022/05/04 07:02:33;;;;;;;;;;;;;;;28.16;41.35;100865.03;4996874;27;98331;-67
2022/05/04 07:05:02;;;;;;;;;;;;;;;28.56;40.98;100864.31;5003861;27;97988;-67
2022/05/04 07:07:28;;;;;;;;;;;;;;;28.96;40.48;100860.72;5003671;27;98666;-67
2022/05/04 07:09:54;;;;;;;;;;;;;;;29.38;40.15;100855.94;5001608;27;115330;-67
2022/05/04 07:12:20;;;;;;;;;;;;;;;29.66;40.08;100858.91;4989418;27;127217;-67
2022/05/04 07:14:46;;;;;;;;;;;;;;;30.06;40.00;100848.78;4982492;27;113940;-68
2022/05/04 07:17:12;;;;;;;;;;;;;;;30.42;39.66;100851.69;4982494;28;128000;-66
2022/05/04 07:19:39;;;;;;;;;;;;;;;30.76;39.39;100844.63;4993839;27;126101;-67
2022/05/04 07:22:05;;;;;;;;;;;;;;;31.11;39.16;100859.75;4981422;28;97767;-67
2022/05/04 07:24:30;;;;;;;;;;;;;;;31.42;38.67;100846.22;4985566;27;117730;-67
2022/05/04 07:26:56;;;;;;;;;;;;;;;31.70;38.26;100839.78;5000714;27;128428;-67
2022/05/04 07:29:22;;;;;;;;;;;;;;;31.96;38.15;100841.34;4988163;27;127944;-67
2022/05/04 07:31:48;;;;;;;;;;;;;;;32.22;38.10;100840.00;4982543;28;129354;-66
2022/05/04 07:34:14;;;;;;;;;;;;;;;32.49;37.83;100840.25;4982336;28;115402;-67
2022/05/04 07:36:40;;;;;;;;;;;;;;;32.80;37.54;100841.25;4983540;27;97967;-67
2022/05/04 07:39:06;;;;;;;;;;;;;;;33.11;37.54;100835.84;4991625;27;98652;-67
2022/05/04 07:44:17;;;;;;;;;;;;;;;33.73;37.08;100832.00;5003246;27;98181;-67
2022/05/04 07:46:43;;;;;;;;;;;;;;;34.17;36.13;100842.25;5000589;27;98048;-67
2022/05/04 07:49:09;;;;;;;;;;;;;;;34.82;35.43;100844.09;4994378;27;98987;-68
2022/05/04 07:51:35;;;;;;;;;;;;;;;35.51;35.01;100836.13;4996649;27;98488;-67
2022/05/04 07:54:01;;;;;;;;;;;;;;;36.14;34.53;100838.84;5000115;27;118259;-67
2022/05/04 07:56:27;;;;;;;;;;;;;;;35.70;35.23;100843.75;4999749;27;98259;-67
2022/05/04 07:58:53;;;;;;;;;;;;;;;35.74;34.78;100844.47;5015558;27;128463;-67
2022/05/04 08:04:20;;;;;;;;;;;;;;;35.96;34.54;100835.63;5000831;27;97834;-67
2022/05/04 08:06:46;;;;;;;;;;;;;;;35.64;34.76;100835.06;5001528;27;98500;-65
2022/05/04 08:09:12;;;;;;;;;;;;;;;36.25;34.01;100833.00;4993182;27;126490;-68
2022/05/04 08:11:38;;;;;;;;;;;;;;;36.43;33.64;100830.56;4981047;28;128730;-66
2022/05/04 08:14:04;;;;;;;;;;;;;;;36.12;34.06;100830.88;4982146;27;97846;-67
2022/05/04 08:16:30;;;;;;;;;;;;;;;37.17;32.92;100832.00;4981989;28;98525;-66
2022/05/04 08:18:56;;;;;;;;;;;;;;;38.09;32.29;100823.00;4969207;27;128159;-66
2022/05/04 08:21:22;;;;;;;;;;;;;;;38.89;31.39;100833.34;4982742;27;126356;-67
2022/05/04 08:23:48;;;;;;;;;;;;;;;39.52;30.94;100832.34;4982901;28;97875;-64
2022/05/04 08:26:14;;;;;;;;;;;;;;;40.51;30.39;100831.81;4980615;27;127788;-66
2022/05/04 08:28:39;;;;;;;;;;;;;;;41.60;29.40;100827.56;4981392;27;127080;-64
2022/05/04 08:31:06;;;;;;;;;;;;;;;42.46;28.85;100827.16;4982245;27;128374;-64
2022/05/04 08:33:32;;;;;;;;;;;;;;;43.14;28.35;100823.75;4982706;27;97920;-65
2022/05/04 08:35:58;;;;;;;;;;;;;;;43.64;27.92;100826.00;4981928;28;98309;-64
2022/05/04 08:38:24;;;;;;;;;;;;;;;44.35;27.62;100827.69;4989169;27;128726;-64
2022/05/04 08:40:52;;;;;;;;;;;;;;;45.24;26.82;100825.28;4999604;27;107715;-66
2022/05/04 08:43:20;;;;;;;;;;;;;;;45.97;26.35;100822.34;4999250;27;98213;-66
2022/05/04 08:45:47;;;;;;;;;;;;;;;46.34;26.09;100822.38;5000110;27;99167;-65
2022/05/04 08:48:13;;;;;;;;;;;;;;;46.78;26.05;100815.38;4999061;27;129925;-64
2022/05/04 08:50:39;;;;;;;;;;;;;;;47.38;25.27;100809.63;5000943;27;127035;-64
2022/05/04 08:53:05;;;;;;;;;;;;;;;47.91;24.90;100813.53;5000721;27;97936;-64
2022/05/04 08:55:31;;;;;;;;;;;;;;;48.29;24.42;100808.31;5001470;27;127741;-64
2022/05/04 08:57:57;;;;;;;;;;;;;;;48.76;24.39;100805.56;5021469;27;128615;-66
2022/05/04 09:00:25;;;;;;;;;;;;;;;49.14;24.07;100803.84;4993279;27;97881;-66
2022/05/04 09:02:51;;;;;;;;;;;;;;;49.51;23.71;100797.59;4995559;27;98181;-64
2022/05/04 09:05:19;;;;;;;;;;;;;;;49.60;23.58;100793.63;4981232;28;109334;-64
2022/05/04 09:07:47;;;;;;;;;;;;;;;49.91;23.43;100794.41;4978991;28;97796;-66
2022/05/04 09:10:16;;;;;;;;;;;;;;;50.19;23.02;100786.34;4981722;28;98980;-64
2022/05/04 09:12:43;;;;;;;;;;;;;;;49.65;23.38;100780.59;4982444;27;98113;-64
2022/05/04 09:15:17;;;;;;;;;;;;;;;49.08;23.79;100763.78;4982587;27;98634;-66
2022/05/04 09:17:43;;;;;;;;;;;;;;;48.72;23.81;100765.03;4992832;27;106646;-66
2022/05/04 09:22:54;;;;;;;;;;;;;;;47.79;24.15;100760.59;4979413;28;97988;-64
2022/05/04 09:25:20;;;;;;;;;;;;;;;48.59;23.51;100762.78;4980810;27;126501;-64
2022/05/04 09:27:46;;;;;;;;;;;;;;;49.38;22.67;100763.09;4980824;27;98965;-66
2022/05/04 09:30:15;;;;;;;;;;;;;;;49.96;22.34;100759.25;4980317;28;124241;-67
2022/05/04 09:32:41;;;;;;;;;;;;;;;50.78;21.44;100763.72;4981184;27;97874;-66
2022/05/04 09:35:16;;;;;;;;;;;;;;;51.33;21.37;100749.09;4981065;27;123059;-67
2022/05/04 09:46:03;;;;;;;;;;;;;;;53.17;19.92;100747.47;4988650;27;97965;-65
2022/05/04 09:48:30;;;;;;;;;;;;;;;53.02;19.94;100735.06;5000526;27;98393;-67
2022/05/04 09:51:03;;;;;;;;;;;;;;;51.13;21.22;100736.88;4999205;27;98668;-67
2022/05/04 09:53:29;;;;;;;;;;;;;;;49.22;22.31;100732.53;5002269;27;97717;-66
2022/05/04 09:55:55;;;;;;;;;;;;;;;49.31;21.99;100732.19;5001663;27;98007;-65
2022/05/04 09:58:23;;;;;;;;;;;;;;;50.77;20.63;100736.38;5014718;27;98180;-64
2022/05/04 10:00:49;;;;;;;;;;;;;;;51.12;20.35;100732.47;5001510;27;98239;-67
2022/05/04 10:03:18;;;;;;;;;;;;;;;51.10;20.23;100734.31;5000242;27;117692;-64
2022/05/04 10:05:45;;;;;;;;;;;;;;;50.79;20.66;100734.53;4993254;27;98219;-64
2022/05/04 10:08:11;;;;;;;;;;;;;;;51.25;19.82;100717.41;4980779;27;98525;-63
2022/05/04 10:10:37;;;;;;;;;;;;;;;51.34;18.81;100725.63;4998212;27;99959;-64
2022/05/04 10:13:03;;;;;;;;;;;;;;;51.15;18.31;100719.13;4979832;27;98270;-64
2022/05/04 10:15:29;;;;;;;;;;;;;;;49.30;18.92;100717.13;4962407;28;98134;-66
2022/05/04 10:18:04;;;;;;;;;;;;;;;47.25;19.19;100700.94;4979271;27;129572;-64
2022/05/04 10:20:34;;;;;;;;;;;;;;;45.14;19.90;100707.28;4989272;27;98284;-64
2022/05/04 10:23:02;;;;;;;;;;;;;;;43.47;20.30;100696.03;4999100;27;97794;-68
2022/05/04 10:25:32;;;;;;;;;;;;;;;42.25;20.41;100690.31;4997797;27;104315;-65
2022/05/04 10:28:08;;;;;;;;;;;;;;;42.15;20.02;100700.84;4992984;27;98480;-63
2022/05/04 10:30:34;;;;;;;;;;;;;;;41.24;20.38;100695.53;4980231;27;97907;-66
2022/05/04 10:33:05;;;;;;;;;;;;;;;39.85;20.95;100696.59;4991527;27;97950;-63
2022/05/04 10:35:32;;;;;;;;;;;;;;;38.88;21.72;100696.63;4999943;27;98486;-63
2022/05/04 10:38:01;;;;;;;;;;;;;;;38.01;21.84;100692.28;4999327;27;98787;-65
2022/05/04 10:40:38;;;;;;;;;;;;;;;37.41;22.01;100695.69;5004041;27;98113;-66
2022/05/04 10:43:08;;;;;;;;;;;;;;;36.64;22.36;100696.63;5003716;27;98060;-67
2022/05/04 10:45:38;;;;;;;;;;;;;;;35.95;22.42;100699.47;5003595;27;99148;-68
2022/05/04 10:48:14;;;;;;;;;;;;;;;35.25;23.26;100695.75;5003678;27;98607;-67
2022/05/04 10:51:21;;;;;;;;;;;;;;;34.60;23.23;100692.56;5003537;27;98223;-67
2022/05/04 10:53:48;;;;;;;;;;;;;;;33.93;23.29;100698.00;5002796;27;97862;-67
2022/05/04 10:56:19;;;;;;;;;;;;;;;33.43;23.59;100699.44;5011465;27;99324;-68
2022/05/04 10:58:52;;;;;;;;;;;;;;;32.93;23.96;100693.63;5023504;27;98769;-68
2022/05/04 11:01:31;;;;;;;;;;;;;;;32.50;24.10;100697.63;5000736;27;100263;-69
2022/05/04 11:04:15;;;;;;;;;;;;;;;32.17;24.53;100695.47;5004579;27;97701;-69
2022/05/04 11:06:50;;;;;;;;;;;;;;;31.88;24.46;100694.88;4993655;27;98237;-67
2022/05/04 11:09:20;;;;;;;;;;;;;;;31.58;24.63;100692.63;4982953;27;98836;-67
2022/05/04 11:11:47;;;;;;;;;;;;;;;31.32;24.90;100699.50;4992623;27;98926;-67
2022/05/04 11:14:14;;;;;;;;;;;;;;;31.05;25.00;100700.75;4982983;28;105475;-67
2022/05/04 11:16:40;;;;;;;;;;;;;;;30.77;25.27;100700.78;4983186;27;98506;-66
2022/05/04 11:19:06;;;;;;;;;;;;;;;30.45;25.58;100700.78;4981480;27;120331;-67
2022/05/04 11:21:33;;;;;;;;;;;;;;;30.13;25.44;100709.06;4987603;27;98754;-66
2022/05/04 11:24:00;;;;;;;;;;;;;;;29.80;26.11;100703.47;4983654;28;97704;-68
2022/05/04 11:26:35;;;;;;;;;;;;;;;29.49;25.89;100710.47;4983080;27;98745;-67
2022/05/04 11:29:01;;;;;;;;;;;;;;;29.18;26.38;100705.56;4982956;27;99216;-66
2022/05/04 11:31:27;;;;;;;;;;;;;;;28.89;26.40;100702.59;4983535;27;122223;-66
2022/05/04 11:33:53;;;;;;;;;;;;;;;28.61;26.36;100704.00;4982500;27;112677;-67
2022/05/04 11:36:20;;;;;;;;;;;;;;;28.34;26.80;100700.56;4982805;28;103936;-67
2022/05/04 11:38:46;;;;;;;;;;;;;;;28.13;26.74;100703.13;4982845;27;99246;-66
2022/05/04 11:41:13;;;;;;;;;;;;;;;27.92;27.08;100706.47;4983767;27;98843;-67
2022/05/04 11:43:39;;;;;;;;;;;;;;;27.71;27.05;100707.03;4980715;28;97955;-66
2022/05/04 11:46:09;;;;;;;;;;;;;;;27.56;27.29;100697.75;4981711;27;128332;-66
2022/05/04 11:48:42;;;;;;;;;;;;;;;27.40;27.19;100706.25;4982507;27;98346;-66
2022/05/04 11:51:09;;;;;;;;;;;;;;;27.25;27.60;100709.19;4983293;28;97940;-66
2022/05/04 11:53:34;;;;;;;;;;;;;;;27.06;27.37;100708.13;4983997;27;111525;-66
2022/05/04 11:56:03;;;;;;;;;;;;;;;26.90;27.86;100719.34;5005665;27;126679;-65
2022/05/04 11:58:30;;;;;;;;;;;;;;;26.72;27.79;100711.94;5002538;27;98527;-66
2022/05/04 12:00:56;;;;;;;;;;;;;;;26.58;28.20;100710.56;5002112;27;109362;-66
2022/05/04 12:03:23;;;;;;;;;;;;;;;26.46;28.03;100709.97;4991774;27;98077;-66
2022/05/04 12:05:49;;;;;;;;;;;;;;;26.38;28.18;100704.28;4980510;28;98801;-66
2022/05/04 12:08:17;;;;;;;;;;;;;;;26.41;28.07;100711.03;4979691;28;100322;-67
2022/05/04 12:10:43;;;;;;;;;;;;;;;26.49;28.36;100707.25;4981892;27;97913;-66
2022/05/04 12:13:09;;;;;;;;;;;;;;;26.57;28.15;100697.91;4980023;27;117127;-66
2022/05/04 12:15:37;;;;;;;;;;;;;;;26.65;28.36;100701.59;4979956;28;128515;-66
2022/05/04 12:18:05;;;;;;;;;;;;;;;26.74;28.18;100699.34;4982461;27;99584;-67
2022/05/04 12:20:34;;;;;;;;;;;;;;;26.81;28.47;100695.91;4991846;27;98171;-67
2022/05/04 12:23:03;;;;;;;;;;;;;;;26.87;28.40;100697.16;5002772;27;97776;-66
2022/05/04 12:25:29;;;;;;;;;;;;;;;26.90;28.22;100688.13;4983784;27;98577;-66
2022/05/04 12:27:56;;;;;;;;;;;;;;;26.96;28.23;100683.06;4980761;28;98694;-66
2022/05/04 12:33:08;;;;;;;;;;;;;;;27.09;28.47;100690.78;4980275;28;97771;-67
2022/05/04 12:35:45;;;;;;;;;;;;;;;27.19;28.55;100677.50;4983546;27;98580;-66
2022/05/04 12:38:17;;;;;;;;;;;;;;;27.30;28.28;100681.19;4980786;27;112621;-66
2022/05/04 12:40:43;;;;;;;;;;;;;;;27.46;28.25;100670.72;4983120;27;98420;-67
2022/05/04 12:43:09;;;;;;;;;;;;;;;27.59;28.30;100669.31;5001692;27;106888;-66
2022/05/04 12:45:35;;;;;;;;;;;;;;;27.69;28.26;100667.03;5000183;27;98504;-66
2022/05/04 12:48:04;;;;;;;;;;;;;;;27.76;28.20;100669.91;4983222;27;97960;-66
2022/05/04 12:50:29;;;;;;;;;;;;;;;27.79;28.24;100671.94;5000476;27;123661;-66
2022/05/04 12:52:56;;;;;;;;;;;;;;;27.77;28.22;100669.53;5001417;27;116324;-67
2022/05/04 12:56:46;;;;;;;;;;;;;;;27.71;28.69;100659.94;4999560;27;98926;-66
2022/05/04 12:58:12;;;;;;;;;;;;;;;27.63;28.47;100669.34;4981361;27;98615;-66
2022/05/04 13:00:37;;;;;;;;;;;;;;;27.51;28.74;100662.09;4992292;27;98052;-66
2022/05/04 13:03:07;;;;;;;;;;;;;;;27.41;28.78;100660.78;5000913;27;115460;-66
2022/05/04 13:05:33;;;;;;;;;;;;;;;27.32;28.83;100660.28;5000995;27;98831;-66
2022/05/04 13:07:59;;;;;;;;;;;;;;;27.25;28.52;100640.03;4983079;27;127932;-65